createdAt,value
2018-12-30T00:05:14.329Z,10.90
2018-12-30T00:07:56.425Z,17.97
2018-12-30T00:10:36.297Z,14.50
2018-12-30T00:13:22.787Z,17.37
2018-12-30T00:16:02.539Z,18.97
2018-12-30T00:18:42.557Z,13.57
2018-12-30T00:21:22.827Z,15.50
2018-12-30T00:24:03.808Z,14.13
2018-12-30T00:26:48.155Z,16.57
2018-12-30T00:29:28.643Z,16.63
2018-12-30T00:32:08.779Z,13.50
2018-12-30T00:34:48.679Z,9.63
2018-12-30T00:37:29.204Z,13.20
2018-12-30T00:40:09.847Z,12.50
2018-12-30T00:42:49.828Z,13.60
2018-12-30T00:45:29.814Z,10.83
2018-12-30T00:48:09.872Z,10.53
2018-12-30T00:50:51.047Z,10.03
2018-12-30T00:53:31.656Z,13.10
2018-12-30T00:56:12.323Z,12.17
2018-12-30T00:58:52.293Z,14.50
2018-12-30T01:01:32.040Z,14.43
2018-12-30T01:04:11.754Z,12.30
2018-12-30T01:06:52.438Z,13.17
2018-12-30T01:09:32.453Z,16.57
2018-12-30T01:12:12.632Z,11.63
2018-12-30T01:14:52.441Z,12.70
2018-12-30T01:17:32.295Z,12.83
2018-12-30T01:20:12.432Z,12.43
2018-12-30T01:22:53.779Z,11.13
2018-12-30T01:25:36.436Z,16.07
2018-12-30T01:28:16.625Z,17.27
2018-12-30T01:30:56.549Z,14.23
2018-12-30T01:33:36.690Z,14.47
2018-12-30T01:36:16.680Z,14.30
2018-12-30T01:38:57.575Z,14.43
2018-12-30T01:41:37.756Z,13.73
2018-12-30T01:44:17.851Z,17.30
2018-12-30T01:46:58.003Z,11.90
2018-12-30T01:49:38.718Z,14.17
2018-12-30T01:52:06.426Z,13.67
2018-12-30T01:54:53.830Z,13.43
2018-12-30T01:57:34.010Z,12.77
2018-12-30T02:00:13.858Z,14.97
2018-12-30T02:02:57.492Z,15.67
2018-12-30T02:05:39.984Z,14.93
2018-12-30T02:08:19.924Z,14.30
2018-12-30T02:10:59.790Z,20.70
2018-12-30T02:13:40.717Z,13.40
2018-12-30T02:16:20.495Z,14.63
2018-12-30T02:19:00.259Z,18.17
2018-12-30T02:21:41.145Z,16.87
2018-12-30T02:24:21.263Z,14.67
2018-12-30T02:27:01.461Z,10.87
2018-12-30T02:29:42.289Z,14.83
2018-12-30T02:32:22.989Z,15.63
2018-12-30T02:35:02.994Z,12.40
2018-12-30T02:37:42.929Z,12.70
2018-12-30T02:40:23.136Z,10.50
2018-12-30T02:43:03.241Z,14.87
2018-12-30T02:45:44.494Z,16.17
2018-12-30T02:48:25.534Z,12.07
2018-12-30T02:51:05.737Z,13.37
2018-12-30T02:53:45.822Z,15.27
2018-12-30T02:56:25.743Z,13.73
2018-12-30T02:59:05.764Z,15.30
2018-12-30T03:01:49.369Z,14.73
2018-12-30T03:04:18.720Z,13.60
2018-12-30T03:07:05.798Z,14.63
2018-12-30T03:09:46.738Z,18.67
2018-12-30T03:12:26.989Z,16.50
2018-12-30T03:15:07.226Z,13.40
2018-12-30T03:17:47.490Z,15.57
2018-12-30T03:20:27.261Z,10.10
2018-12-30T03:23:09.300Z,16.93
2018-12-30T03:25:49.912Z,10.07
2018-12-30T03:28:29.689Z,15.77
2018-12-30T03:31:09.755Z,16.10
2018-12-30T03:33:49.922Z,15.87
2018-12-30T03:36:29.918Z,17.53
2018-12-30T03:39:10.298Z,18.83
2018-12-30T03:41:50.114Z,18.87
2018-12-30T03:44:30.124Z,18.30
2018-12-30T03:47:09.909Z,16.93
2018-12-30T03:49:50.009Z,13.60
2018-12-30T03:52:30.019Z,12.70
2018-12-30T03:55:10.272Z,16.03
2018-12-30T03:57:50.248Z,14.97
2018-12-30T04:00:30.887Z,17.33
2018-12-30T04:03:10.632Z,13.07
2018-12-30T04:05:50.474Z,14.30
2018-12-30T04:08:30.656Z,13.93
2018-12-30T04:11:10.484Z,19.47
2018-12-30T04:13:50.461Z,16.83
2018-12-30T04:16:30.468Z,15.13
2018-12-30T04:19:10.596Z,18.77
2018-12-30T04:21:50.816Z,15.23
2018-12-30T04:24:31.645Z,15.10
2018-12-30T04:27:11.802Z,11.33
2018-12-30T04:29:51.850Z,21.90
2018-12-30T04:32:31.895Z,18.27
2018-12-30T04:35:12.108Z,15.83
2018-12-30T04:37:52.374Z,13.83
2018-12-30T04:40:33.724Z,23.03
2018-12-30T04:43:13.915Z,15.23
2018-12-30T04:45:53.928Z,14.67
2018-12-30T04:48:34.104Z,18.03
2018-12-30T04:51:14.296Z,16.60
2018-12-30T04:53:54.396Z,13.20
2018-12-30T04:56:34.194Z,17.50
2018-12-30T04:59:14.060Z,15.97
2018-12-30T05:01:53.864Z,18.03
2018-12-30T05:04:33.761Z,13.30
2018-12-30T05:07:13.738Z,18.07
2018-12-30T05:09:53.552Z,13.03
2018-12-30T05:12:33.569Z,16.83
2018-12-30T05:15:14.278Z,12.93
2018-12-30T05:17:54.024Z,15.37
2018-12-30T05:20:34.259Z,14.47
2018-12-30T05:23:14.388Z,13.43
2018-12-30T05:25:54.634Z,12.67
2018-12-30T05:28:34.838Z,13.63
2018-12-30T05:31:14.978Z,14.87
2018-12-30T05:33:56.794Z,17.93
2018-12-30T05:36:37.214Z,14.53
2018-12-30T05:39:17.194Z,11.70
2018-12-30T05:41:57.428Z,15.20
2018-12-30T05:44:37.148Z,12.33
2018-12-30T05:47:18.550Z,13.20
2018-12-30T05:53:11.327Z,17.47
2018-12-30T05:55:51.624Z,19.37
2018-12-30T06:01:17.739Z,15.13
2018-12-30T06:07:11.426Z,14.97
2018-12-30T06:09:51.938Z,15.03
2018-12-30T06:12:32.073Z,17.63
2018-12-30T06:15:12.309Z,21.73
2018-12-30T06:17:52.310Z,16.23
2018-12-30T06:20:32.501Z,18.83
2018-12-30T06:23:14.253Z,16.47
2018-12-30T06:25:54.680Z,16.43
2018-12-30T06:28:35.034Z,14.53
2018-12-30T06:31:15.421Z,18.07
2018-12-30T06:33:55.402Z,16.00
2018-12-30T06:36:35.313Z,15.07
2018-12-30T06:39:15.414Z,15.87
2018-12-30T06:41:55.359Z,15.00
2018-12-30T06:44:35.316Z,15.47
2018-12-30T06:47:15.195Z,17.43
2018-12-30T06:50:02.502Z,20.93
2018-12-30T06:52:57.356Z,18.50
2018-12-30T06:55:31.445Z,22.73
2018-12-30T06:58:11.702Z,19.30
2018-12-30T07:00:51.409Z,14.77
2018-12-30T07:03:31.479Z,18.83
2018-12-30T07:06:12.983Z,19.47
2018-12-30T07:08:53.541Z,17.03
2018-12-30T07:11:33.683Z,19.47
2018-12-30T07:14:13.699Z,24.00
2018-12-30T07:19:56.341Z,16.13
2018-12-30T07:22:36.071Z,20.57
2018-12-30T07:25:16.155Z,17.13
2018-12-30T07:27:55.941Z,20.47
2018-12-30T07:30:35.904Z,20.53
2018-12-30T07:33:15.692Z,15.43
2018-12-30T07:35:55.994Z,21.80
2018-12-30T07:38:35.625Z,17.07
2018-12-30T07:41:15.812Z,20.93
2018-12-30T07:43:56.364Z,21.03
2018-12-30T07:46:36.788Z,17.43
2018-12-30T07:49:21.807Z,20.40
2018-12-30T07:52:01.723Z,17.13
2018-12-30T07:54:41.718Z,22.07
2018-12-30T07:57:21.935Z,25.97
2018-12-30T08:00:05.406Z,19.90
2018-12-30T08:02:45.003Z,20.57
2018-12-30T08:08:11.051Z,22.17
2018-12-30T08:10:51.047Z,20.33
2018-12-30T08:13:31.335Z,22.23
2018-12-30T08:16:11.953Z,26.63
2018-12-30T08:18:39.955Z,18.57
2018-12-30T08:21:27.154Z,19.10
2018-12-30T08:24:14.572Z,19.97
2018-12-30T08:29:57.209Z,25.77
2018-12-30T08:32:44.434Z,23.07
2018-12-30T08:36:09.653Z,14.93
2018-12-30T08:38:40.702Z,17.93
2018-12-30T08:44:34.961Z,19.67
2018-12-30T08:47:16.469Z,22.60
2018-12-30T08:49:58.972Z,23.33
2018-12-30T08:52:45.670Z,21.40
2018-12-30T08:55:23.082Z,27.77
2018-12-30T08:58:03.388Z,25.27
2018-12-30T09:00:43.228Z,24.30
2018-12-30T09:03:24.438Z,25.07
2018-12-30T09:06:04.272Z,19.50
2018-12-30T09:11:40.432Z,29.13
2018-12-30T09:14:20.225Z,21.80
2018-12-30T09:17:00.244Z,19.53
2018-12-30T09:19:40.174Z,28.37
2018-12-30T09:28:21.647Z,18.70
2018-12-30T09:31:01.561Z,21.27
2018-12-30T09:33:41.658Z,26.80
2018-12-30T09:36:21.991Z,19.90
2018-12-30T09:39:03.678Z,20.07
2018-12-30T09:41:44.239Z,20.17
2018-12-30T09:53:06.658Z,24.73
2018-12-30T09:55:47.618Z,21.23
2018-12-30T09:58:27.918Z,25.53
2018-12-30T10:01:13.509Z,19.87
2018-12-30T10:06:45.475Z,24.40
2018-12-30T10:09:33.909Z,19.13
2018-12-30T10:12:14.142Z,18.60
2018-12-30T10:17:40.315Z,17.07
2018-12-30T10:23:03.243Z,22.43
2018-12-30T10:25:43.226Z,22.50
2018-12-30T10:28:23.700Z,18.30
2018-12-30T10:31:04.249Z,23.33
2018-12-30T10:33:44.491Z,19.63
2018-12-30T10:36:28.184Z,20.00
2018-12-30T10:39:11.397Z,17.73
2018-12-30T10:41:51.806Z,17.00
2018-12-30T10:44:34.910Z,19.57
2018-12-30T10:47:15.303Z,20.73
2018-12-30T10:49:56.929Z,23.47
2018-12-30T10:52:37.301Z,23.70
2018-12-30T10:55:17.405Z,18.70
2018-12-30T11:00:47.414Z,19.60
2018-12-30T11:03:27.275Z,17.57
2018-12-30T11:08:56.896Z,18.13
2018-12-30T11:14:37.108Z,19.00
2018-12-30T11:17:17.648Z,19.13
2018-12-30T11:22:47.318Z,22.27
2018-12-30T11:25:27.166Z,21.00
2018-12-30T11:28:08.079Z,22.53
2018-12-30T11:30:49.560Z,19.67
2018-12-30T11:33:29.450Z,21.50
2018-12-30T11:36:09.622Z,24.17
2018-12-30T11:41:36.061Z,23.57
2018-12-30T11:49:49.591Z,27.27
2018-12-30T11:52:35.836Z,22.67
2018-12-30T11:55:20.884Z,30.60
2018-12-30T12:00:48.574Z,41.13
2018-12-30T12:03:28.480Z,42.43
2018-12-30T12:06:09.935Z,44.17
2018-12-30T12:08:37.546Z,38.93
2018-12-30T12:11:22.182Z,47.40
2018-12-30T12:14:02.256Z,45.77
2018-12-30T12:16:42.720Z,44.13
2018-12-30T12:19:29.643Z,49.80
2018-12-30T12:22:13.470Z,43.43
2018-12-30T12:27:45.737Z,52.83
2018-12-30T12:30:31.838Z,50.37
2018-12-30T12:33:16.439Z,48.53
2018-12-30T12:36:03.003Z,45.77
2018-12-30T12:38:43.770Z,47.73
2018-12-30T12:41:27.654Z,46.30
2018-12-30T12:44:11.276Z,47.20
2018-12-30T12:49:42.140Z,47.00
2018-12-30T12:52:21.847Z,46.53
2018-12-30T12:55:01.800Z,47.60
2018-12-30T13:03:10.609Z,42.50
2018-12-30T13:05:50.521Z,41.10
2018-12-30T13:08:31.226Z,41.63
2018-12-30T13:11:13.047Z,40.63
2018-12-30T13:13:53.275Z,40.53
2018-12-30T13:16:33.408Z,36.00
2018-12-30T13:19:13.799Z,39.53
2018-12-30T13:21:54.845Z,44.70
2018-12-30T13:24:39.890Z,41.70
2018-12-30T13:27:16.635Z,42.00
2018-12-30T13:29:56.799Z,40.37
2018-12-30T13:32:24.444Z,47.13
2018-12-30T13:35:11.878Z,50.80
2018-12-30T13:37:51.862Z,46.83
2018-12-30T13:40:32.262Z,43.93
2018-12-30T13:43:12.772Z,45.57
2018-12-30T13:45:54.244Z,44.70
2018-12-30T13:48:34.150Z,48.13
2018-12-30T13:51:14.490Z,47.27
2018-12-30T13:53:55.001Z,44.13
2018-12-30T13:56:35.721Z,45.13
2018-12-30T13:59:16.107Z,51.07
2018-12-30T14:01:57.684Z,49.40
2018-12-30T14:04:25.294Z,50.57
2018-12-30T14:09:59.136Z,48.30
2018-12-30T14:12:39.990Z,47.40
2018-12-30T14:18:09.972Z,47.20
2018-12-30T14:20:49.974Z,50.23
2018-12-30T14:23:30.814Z,57.63
2018-12-30T14:26:11.172Z,49.60
2018-12-30T14:28:38.762Z,47.37
2018-12-30T14:31:26.288Z,46.50
2018-12-30T14:34:13.692Z,45.73
2018-12-30T14:37:01.564Z,49.90
2018-12-30T14:39:49.556Z,46.50
2018-12-30T14:42:36.878Z,43.10
2018-12-30T14:45:23.964Z,50.37
2018-12-30T14:48:11.032Z,46.37
2018-12-30T14:50:58.074Z,42.20
2018-12-30T14:53:45.561Z,45.33
2018-12-30T14:56:32.644Z,44.53
2018-12-30T14:59:19.959Z,48.03
2018-12-30T15:02:07.282Z,46.27
2018-12-30T15:04:54.413Z,42.70
2018-12-30T15:07:41.820Z,42.57
2018-12-30T15:10:28.877Z,42.17
2018-12-30T15:12:56.501Z,41.93
2018-12-30T15:15:43.952Z,45.23
2018-12-30T15:18:31.033Z,45.73
2018-12-30T15:21:18.104Z,42.83
2018-12-30T15:24:05.214Z,48.33
2018-12-30T15:26:52.257Z,44.23
2018-12-30T15:29:39.385Z,43.87
2018-12-30T15:32:26.863Z,43.43
2018-12-30T15:35:13.942Z,41.97
2018-12-30T15:38:01.399Z,42.40
2018-12-30T15:40:48.847Z,48.67
2018-12-30T15:43:35.926Z,40.57
2018-12-30T15:46:37.554Z,41.57
2018-12-30T15:49:34.671Z,42.67
2018-12-30T15:52:21.802Z,42.37
2018-12-30T15:55:09.403Z,44.53
2018-12-30T15:57:56.480Z,44.43
2018-12-30T16:00:43.962Z,39.43
2018-12-30T16:03:31.100Z,45.77
2018-12-30T16:06:18.578Z,44.67
2018-12-30T16:09:07.645Z,46.10
2018-12-30T16:11:56.607Z,44.67
2018-12-30T16:14:43.749Z,45.67
2018-12-30T16:17:30.781Z,50.50
2018-12-30T16:20:18.231Z,47.60
2018-12-30T16:23:05.347Z,45.37
2018-12-30T16:25:52.489Z,55.00
2018-12-30T16:28:39.643Z,49.90
2018-12-30T16:34:22.213Z,51.00
2018-12-30T16:37:09.237Z,50.17
2018-12-30T16:39:56.528Z,51.03
2018-12-30T16:42:46.422Z,53.30
2018-12-30T16:45:33.498Z,53.97
2018-12-30T16:48:20.530Z,52.77
2018-12-30T16:51:07.582Z,54.87
2018-12-30T16:53:55.059Z,48.93
2018-12-30T16:57:03.425Z,55.07
2018-12-30T16:59:51.107Z,58.43
2018-12-30T17:02:38.274Z,63.50
2018-12-30T17:08:33.889Z,56.10
2018-12-30T17:11:20.990Z,61.30
2018-12-30T17:16:47.143Z,59.93
2018-12-30T17:19:27.787Z,58.60
2018-12-30T17:24:54.379Z,53.93
2018-12-30T17:33:03.625Z,60.20
2018-12-30T17:38:31.722Z,55.80
2018-12-30T17:52:21.633Z,61.40
2018-12-30T17:55:03.903Z,54.47
2018-12-30T17:57:47.663Z,55.40
2018-12-30T18:00:28.934Z,55.23
2018-12-30T18:03:09.693Z,53.37
2018-12-30T18:08:42.095Z,54.17
2018-12-30T18:11:23.858Z,54.03
2018-12-30T18:14:04.380Z,55.27
2018-12-30T18:16:50.598Z,54.77
2018-12-30T18:19:36.992Z,58.70
2018-12-30T18:22:16.966Z,52.80
2018-12-30T18:24:44.709Z,50.80
2018-12-30T18:27:31.731Z,50.13
2018-12-30T18:30:12.330Z,52.37
2018-12-30T18:32:54.025Z,48.50
2018-12-30T18:35:35.987Z,50.30
2018-12-30T18:41:08.721Z,49.67
2018-12-30T18:46:41.929Z,46.63
2018-12-30T18:49:26.549Z,51.50
2018-12-30T19:00:28.071Z,53.03
2018-12-30T19:08:47.529Z,58.80
2018-12-30T19:17:39.050Z,56.83
2018-12-30T19:20:09.123Z,59.10
2018-12-30T19:22:53.720Z,52.27
2018-12-30T19:25:38.241Z,52.80
2018-12-30T19:31:10.018Z,53.03
2018-12-30T19:36:45.929Z,58.47
2018-12-30T19:39:32.694Z,59.53
2018-12-30T19:42:39.744Z,51.57
2018-12-30T19:50:58.453Z,46.83
2018-12-30T19:53:44.504Z,49.23
2018-12-30T19:56:30.705Z,61.93
2018-12-30T19:58:58.815Z,50.50
2018-12-30T20:01:53.012Z,50.97
2018-12-30T20:04:40.709Z,45.77
2018-12-30T20:19:11.107Z,52.43
2018-12-30T20:30:19.606Z,45.80
2018-12-30T20:33:04.016Z,61.73
2018-12-30T20:41:24.368Z,49.83
2018-12-30T20:44:11.586Z,42.70
2018-12-30T20:46:56.243Z,44.67
2018-12-30T20:55:15.278Z,47.40
2018-12-30T20:57:59.933Z,49.80
2018-12-30T21:00:43.563Z,40.87
2018-12-30T21:03:28.106Z,43.17
2018-12-30T21:06:09.620Z,39.73
2018-12-30T21:14:26.280Z,41.00
2018-12-30T21:19:53.994Z,41.40
2018-12-30T21:25:14.394Z,43.43
2018-12-30T21:30:43.323Z,43.73
2018-12-30T21:33:23.460Z,44.13
2018-12-30T21:36:05.068Z,47.20
2018-12-30T21:38:44.990Z,45.43
2018-12-30T21:41:25.069Z,49.20
2018-12-30T21:44:05.198Z,44.37
2018-12-30T21:52:37.544Z,41.77
2018-12-30T21:58:06.804Z,45.83
2018-12-30T22:09:18.616Z,43.43
2018-12-30T22:29:01.032Z,47.50
2018-12-30T22:34:35.772Z,62.17
2018-12-30T22:40:16.649Z,66.00
2018-12-30T22:43:02.418Z,60.67
2018-12-30T22:45:46.288Z,56.70
2018-12-30T22:54:14.431Z,53.93
2018-12-30T23:08:15.281Z,62.47
2018-12-30T23:10:55.038Z,58.10
2018-12-30T23:13:35.666Z,65.33
2018-12-30T23:25:01.726Z,67.13
2018-12-30T23:30:32.318Z,68.13
2018-12-30T23:38:51.374Z,70.13
2018-12-30T23:52:38.842Z,73.93
2018-12-30T23:55:18.834Z,70.23
